Messages of WXBOT - map view · info · telemetry · weather · raw · status · beacons · messages · bulletins · browse · moving · my account
Callsign:
Show:

Loading message packets...

APRS messages are stored for 14 days. It is possible to search using wildcards (*?) after a prefix.

2020-09-30 17:41:21 EDT: WXBOT>KC1IHK: New Port Richey East FL. Tonight,Mostly Clear Low 64
2020-09-30 17:42:25 EDT: KC1IHK>WXBOT: kc1ihk
2020-09-30 17:42:27 EDT: WXBOT>KC1IHK: New Port Richey East FL. Tonight,Mostly Clear Low 64
2020-09-30 17:43:40 EDT: KC1IHK>WXBOT: kc1ihk
2020-09-30 17:43:43 EDT: WXBOT>KC1IHK: New Port Richey East FL. Tonight,Mostly Clear Low 64
2020-09-30 18:11:14 EDT: KO4GPT-9>WXBOT: today 22153 metar
2020-09-30 18:11:20 EDT: WXBOT>KO4GPT-9: KDAA 302156Z AUTO 18008KT 10SM CLR 20/10 A2985 RMK AO2 SLPNO T02010
2020-09-30 18:11:25 EDT: WXBOT>KO4GPT-9: 102 $
2020-09-30 18:12:18 EDT: KO4GPT-9>WXBOT: today 22153 metar
2020-09-30 18:12:24 EDT: WXBOT>KO4GPT-9: KDAA 302156Z AUTO 18008KT 10SM CLR 20/10 A2985 RMK AO2 SLPNO T02010
2020-09-30 18:12:29 EDT: WXBOT>KO4GPT-9: 102 $
2020-09-30 18:13:25 EDT: KO4GPT-9>WXBOT: today 22153 metar
2020-09-30 18:13:32 EDT: WXBOT>KO4GPT-9: KDAA 302156Z AUTO 18008KT 10SM CLR 20/10 A2985 RMK AO2 SLPNO T02010
2020-09-30 18:13:37 EDT: WXBOT>KO4GPT-9: 102 $
2020-09-30 18:14:22 EDT: PU4ARR-9>WXBOT: PY5TG-13
2020-09-30 18:14:29 EDT: WXBOT>PU4ARR-9: Sorry, unable to get a forecast for location -25.27817/-49.2525
2020-09-30 18:14:37 EDT: PU4ARR-9>WXBOT: Ok mensagem recebida!
2020-09-30 18:14:41 EDT: WXBOT>PU4ARR-9: Sorry, unable to get a forecast for location -22.91967/-43.23250
2020-09-30 18:18:46 EDT: KO4GPT-9>WXBOT: today 22153 metar
2020-09-30 18:18:52 EDT: WXBOT>KO4GPT-9: KDAA 302156Z AUTO 18008KT 10SM CLR 20/10 A2985 RMK AO2 SLPNO T02010
2020-09-30 18:18:57 EDT: WXBOT>KO4GPT-9: 102 $
2020-09-30 18:19:53 EDT: KO4GPT-9>WXBOT: today 22153 metar
2020-09-30 18:19:59 EDT: WXBOT>KO4GPT-9: KDAA 302156Z AUTO 18008KT 10SM CLR 20/10 A2985 RMK AO2 SLPNO T02010
2020-09-30 18:20:04 EDT: WXBOT>KO4GPT-9: 102 $
2020-09-30 18:21:00 EDT: KO4GPT-9>WXBOT: today 22153 metar
2020-09-30 18:21:07 EDT: WXBOT>KO4GPT-9: KDAA 302156Z AUTO 18008KT 10SM CLR 20/10 A2985 RMK AO2 SLPNO T02010
2020-09-30 18:21:12 EDT: WXBOT>KO4GPT-9: 102 $
2020-09-30 18:22:07 EDT: KO4GPT-9>WXBOT: today 22153 metar
2020-09-30 18:22:13 EDT: WXBOT>KO4GPT-9: KDAA 302156Z AUTO 18008KT 10SM CLR 20/10 A2985 RMK AO2 SLPNO T02010
2020-09-30 18:22:18 EDT: WXBOT>KO4GPT-9: 102 $
2020-09-30 18:23:58 EDT: KO4GPT-9>WXBOT: today 22153 metar
2020-09-30 18:24:04 EDT: WXBOT>KO4GPT-9: KDAA 301756Z AUTO 00000KT 10SM SCT049 21/09 A2986 RMK AO2 SLPNO T02
2020-09-30 18:24:09 EDT: WXBOT>KO4GPT-9: 090092 10210 20126 $
2020-09-30 18:37:58 EDT: KO4GPT-9>WXBOT: today 22153 metar
2020-09-30 18:38:04 EDT: WXBOT>KO4GPT-9: KDAA 302156Z AUTO 18008KT 10SM CLR 20/10 A2985 RMK AO2 SLPNO T02010
2020-09-30 18:38:09 EDT: WXBOT>KO4GPT-9: 102 $
2020-09-30 19:37:30 EDT: KW6OWL-9>WXBOT: today
2020-09-30 19:37:38 EDT: WXBOT>KW6OWL-9: 4 Miles SE Sebastopol CA. Heat Advisory, Tonight,Haze Low 58
2020-09-30 19:46:13 EDT: KW6OWL-9>WXBOT: today
2020-09-30 19:46:20 EDT: WXBOT>KW6OWL-9: 2 Miles E Sebastopol CA. Heat Advisory, Tonight,Haze Low 58
2020-09-30 20:14:09 EDT: KC2G-9>WXBOT: today
2020-09-30 20:14:17 EDT: WXBOT>KC2G-9: Allendale NJ. Tonight,Mostly Clear Low 54
2020-09-30 20:18:12 EDT: KC2G-9>WXBOT: today
2020-09-30 20:18:19 EDT: WXBOT>KC2G-9: Allendale NJ. Tonight,Mostly Clear Low 53
2020-09-30 21:26:31 EDT: KJ7OWD-9>WXBOT: today
2020-09-30 21:26:39 EDT: WXBOT>KJ7OWD-9: 2 Miles NE Washington UT. Tonight,Clear Low 58
2020-09-30 21:29:31 EDT: KJ7OWD-9>WXBOT: today
2020-09-30 21:29:39 EDT: WXBOT>KJ7OWD-9: 4 Miles NE Washington UT. Tonight,Clear Low 59
2020-09-30 21:31:32 EDT: KJ7OWD-9>WXBOT: today
2020-09-30 21:31:40 EDT: WXBOT>KJ7OWD-9: 4 Miles NE Washington UT. Tonight,Clear Low 59
< previous
User guide · FAQ · Blog · Discussion group · Linking to aprs.fi · AIS sites · Service status · Database statistics · Advertising on aprs.fi · Technical details · API · Change log · Planned changes · Credits and thanks · Terms Of Service · iPhone/iPad APRS